sensor_id;sensor_type;location;lat;lon;timestamp;P1;durP1;ratioP1;P2;durP2;ratioP2
49842;SDS011;55559;48.898;9.184;2022-10-03T00:01:09;18.60;;;12.52;;
49842;SDS011;55559;48.898;9.184;2022-10-03T00:03:47;17.33;;;11.63;;
49842;SDS011;55559;48.898;9.184;2022-10-03T00:06:26;19.02;;;13.93;;
49842;SDS011;55559;48.898;9.184;2022-10-03T00:09:19;23.70;;;15.68;;
49842;SDS011;55559;48.898;9.184;2022-10-03T00:12:00;23.73;;;16.10;;
49842;SDS011;55559;48.898;9.184;2022-10-03T00:14:40;22.77;;;15.48;;
49842;SDS011;55559;48.898;9.184;2022-10-03T00:17:17;28.50;;;17.02;;
49842;SDS011;55559;48.898;9.184;2022-10-03T00:19:50;31.20;;;17.98;;
49842;SDS011;55559;48.898;9.184;2022-10-03T00:22:27;29.50;;;16.58;;
49842;SDS011;55559;48.898;9.184;2022-10-03T00:25:14;31.38;;;16.95;;
49842;SDS011;55559;48.898;9.184;2022-10-03T00:27:54;29.75;;;16.02;;
49842;SDS011;55559;48.898;9.184;2022-10-03T00:30:45;29.67;;;17.80;;
49842;SDS011;55559;48.898;9.184;2022-10-03T00:33:24;28.55;;;15.10;;
49842;SDS011;55559;48.898;9.184;2022-10-03T00:36:01;24.83;;;14.98;;
49842;SDS011;55559;48.898;9.184;2022-10-03T00:38:43;22.55;;;15.60;;
49842;SDS011;55559;48.898;9.184;2022-10-03T00:41:33;30.80;;;15.15;;
49842;SDS011;55559;48.898;9.184;2022-10-03T00:50:55;23.58;;;16.35;;
49842;SDS011;55559;48.898;9.184;2022-10-03T00:53:54;24.02;;;16.33;;
49842;SDS011;55559;48.898;9.184;2022-10-03T00:56:38;21.08;;;15.30;;
49842;SDS011;55559;48.898;9.184;2022-10-03T00:59:26;24.50;;;15.90;;
49842;SDS011;55559;48.898;9.184;2022-10-03T01:02:27;22.25;;;16.55;;
49842;SDS011;55559;48.898;9.184;2022-10-03T01:05:14;21.98;;;15.27;;
49842;SDS011;55559;48.898;9.184;2022-10-03T01:10:51;27.35;;;15.98;;
49842;SDS011;55559;48.898;9.184;2022-10-03T01:13:30;22.98;;;15.80;;
49842;SDS011;55559;48.898;9.184;2022-10-03T01:16:10;20.60;;;16.13;;
49842;SDS011;55559;48.898;9.184;2022-10-03T01:18:50;25.35;;;15.82;;
49842;SDS011;55559;48.898;9.184;2022-10-03T01:21:29;22.65;;;14.23;;
49842;SDS011;55559;48.898;9.184;2022-10-03T01:27:20;19.63;;;13.38;;
49842;SDS011;55559;48.898;9.184;2022-10-03T01:29:56;22.60;;;12.77;;
49842;SDS011;55559;48.898;9.184;2022-10-03T01:32:45;20.10;;;13.82;;
49842;SDS011;55559;48.898;9.184;2022-10-03T01:35:19;21.55;;;13.27;;
49842;SDS011;55559;48.898;9.184;2022-10-03T01:38:08;18.27;;;12.27;;
49842;SDS011;55559;48.898;9.184;2022-10-03T01:40:45;18.75;;;13.00;;
49842;SDS011;55559;48.898;9.184;2022-10-03T01:43:20;19.73;;;13.38;;
49842;SDS011;55559;48.898;9.184;2022-10-03T01:46:03;18.90;;;12.55;;
49842;SDS011;55559;48.898;9.184;2022-10-03T01:48:41;17.60;;;12.65;;
49842;SDS011;55559;48.898;9.184;2022-10-03T01:51:14;21.95;;;12.60;;
49842;SDS011;55559;48.898;9.184;2022-10-03T01:56:41;21.55;;;13.60;;
49842;SDS011;55559;48.898;9.184;2022-10-03T02:01:47;17.70;;;13.02;;
49842;SDS011;55559;48.898;9.184;2022-10-03T02:04:22;21.65;;;13.70;;
49842;SDS011;55559;48.898;9.184;2022-10-03T02:07:03;24.85;;;13.82;;
49842;SDS011;55559;48.898;9.184;2022-10-03T02:09:47;15.82;;;13.43;;
49842;SDS011;55559;48.898;9.184;2022-10-03T02:12:24;30.30;;;14.07;;
49842;SDS011;55559;48.898;9.184;2022-10-03T02:15:00;24.83;;;13.45;;
49842;SDS011;55559;48.898;9.184;2022-10-03T02:17:44;21.15;;;14.32;;
49842;SDS011;55559;48.898;9.184;2022-10-03T02:20:22;23.70;;;13.77;;
49842;SDS011;55559;48.898;9.184;2022-10-03T02:22:54;19.77;;;13.73;;
49842;SDS011;55559;48.898;9.184;2022-10-03T02:25:24;17.70;;;13.00;;
49842;SDS011;55559;48.898;9.184;2022-10-03T02:28:04;26.08;;;13.85;;
49842;SDS011;55559;48.898;9.184;2022-10-03T02:37:06;22.52;;;15.98;;
49842;SDS011;55559;48.898;9.184;2022-10-03T02:46:19;31.42;;;15.25;;
49842;SDS011;55559;48.898;9.184;2022-10-03T02:55:26;22.25;;;16.27;;
49842;SDS011;55559;48.898;9.184;2022-10-03T03:01:29;26.75;;;14.48;;
49842;SDS011;55559;48.898;9.184;2022-10-03T03:04:35;20.80;;;15.43;;
49842;SDS011;55559;48.898;9.184;2022-10-03T03:07:32;25.70;;;14.85;;
49842;SDS011;55559;48.898;9.184;2022-10-03T03:16:28;22.27;;;15.70;;
49842;SDS011;55559;48.898;9.184;2022-10-03T03:19:11;23.27;;;15.13;;
49842;SDS011;55559;48.898;9.184;2022-10-03T03:21:52;21.43;;;15.73;;
49842;SDS011;55559;48.898;9.184;2022-10-03T03:24:34;21.48;;;15.52;;
49842;SDS011;55559;48.898;9.184;2022-10-03T03:27:27;29.17;;;15.90;;
49842;SDS011;55559;48.898;9.184;2022-10-03T03:32:59;24.67;;;16.02;;
49842;SDS011;55559;48.898;9.184;2022-10-03T03:35:39;30.00;;;17.35;;
49842;SDS011;55559;48.898;9.184;2022-10-03T03:38:21;26.83;;;16.45;;
49842;SDS011;55559;48.898;9.184;2022-10-03T03:41:03;21.52;;;15.48;;
49842;SDS011;55559;48.898;9.184;2022-10-03T03:43:46;26.17;;;17.80;;
49842;SDS011;55559;48.898;9.184;2022-10-03T03:46:35;21.52;;;14.30;;
49842;SDS011;55559;48.898;9.184;2022-10-03T03:49:27;23.25;;;15.18;;
49842;SDS011;55559;48.898;9.184;2022-10-03T03:52:18;26.13;;;14.45;;
49842;SDS011;55559;48.898;9.184;2022-10-03T03:55:02;24.87;;;15.47;;
49842;SDS011;55559;48.898;9.184;2022-10-03T03:57:47;21.90;;;14.90;;
49842;SDS011;55559;48.898;9.184;2022-10-03T04:00:29;24.35;;;14.82;;
49842;SDS011;55559;48.898;9.184;2022-10-03T04:03:14;28.23;;;16.88;;
49842;SDS011;55559;48.898;9.184;2022-10-03T04:05:57;29.30;;;18.13;;
49842;SDS011;55559;48.898;9.184;2022-10-03T04:08:41;31.05;;;16.58;;
49842;SDS011;55559;48.898;9.184;2022-10-03T04:11:26;31.00;;;18.48;;
49842;SDS011;55559;48.898;9.184;2022-10-03T04:14:20;32.50;;;18.30;;
49842;SDS011;55559;48.898;9.184;2022-10-03T04:17:06;33.67;;;19.10;;
49842;SDS011;55559;48.898;9.184;2022-10-03T04:20:11;37.13;;;19.77;;
49842;SDS011;55559;48.898;9.184;2022-10-03T04:25:41;30.30;;;18.20;;
49842;SDS011;55559;48.898;9.184;2022-10-03T04:28:29;32.38;;;16.90;;
49842;SDS011;55559;48.898;9.184;2022-10-03T04:31:12;30.15;;;18.23;;
49842;SDS011;55559;48.898;9.184;2022-10-03T04:33:53;42.92;;;20.52;;
49842;SDS011;55559;48.898;9.184;2022-10-03T04:39:27;31.70;;;18.63;;
49842;SDS011;55559;48.898;9.184;2022-10-03T04:42:02;37.55;;;19.30;;
49842;SDS011;55559;48.898;9.184;2022-10-03T04:44:46;37.92;;;20.20;;
49842;SDS011;55559;48.898;9.184;2022-10-03T04:47:30;33.58;;;19.48;;
49842;SDS011;55559;48.898;9.184;2022-10-03T04:50:12;37.78;;;19.42;;
49842;SDS011;55559;48.898;9.184;2022-10-03T04:52:51;52.00;;;21.77;;
49842;SDS011;55559;48.898;9.184;2022-10-03T04:55:32;32.08;;;20.73;;
49842;SDS011;55559;48.898;9.184;2022-10-03T04:58:14;33.83;;;20.27;;
49842;SDS011;55559;48.898;9.184;2022-10-03T05:00:53;40.58;;;19.60;;
49842;SDS011;55559;48.898;9.184;2022-10-03T05:03:36;38.58;;;20.02;;
49842;SDS011;55559;48.898;9.184;2022-10-03T05:06:23;39.05;;;22.50;;
49842;SDS011;55559;48.898;9.184;2022-10-03T05:09:05;44.72;;;20.95;;
49842;SDS011;55559;48.898;9.184;2022-10-03T05:11:54;39.67;;;22.13;;
49842;SDS011;55559;48.898;9.184;2022-10-03T05:14:36;41.47;;;22.02;;
49842;SDS011;55559;48.898;9.184;2022-10-03T05:17:17;43.33;;;22.23;;
49842;SDS011;55559;48.898;9.184;2022-10-03T05:22:57;40.22;;;20.90;;
49842;SDS011;55559;48.898;9.184;2022-10-03T05:25:39;37.80;;;21.70;;
49842;SDS011;55559;48.898;9.184;2022-10-03T05:28:14;40.53;;;22.08;;
49842;SDS011;55559;48.898;9.184;2022-10-03T05:30:53;35.28;;;21.98;;
49842;SDS011;55559;48.898;9.184;2022-10-03T05:33:30;48.22;;;22.05;;
49842;SDS011;55559;48.898;9.184;2022-10-03T05:36:08;37.78;;;20.83;;
49842;SDS011;55559;48.898;9.184;2022-10-03T05:41:59;41.03;;;20.77;;
49842;SDS011;55559;48.898;9.184;2022-10-03T05:44:49;46.20;;;20.88;;
49842;SDS011;55559;48.898;9.184;2022-10-03T05:47:29;42.53;;;21.73;;
49842;SDS011;55559;48.898;9.184;2022-10-03T05:53:17;34.95;;;20.52;;
49842;SDS011;55559;48.898;9.184;2022-10-03T05:56:04;40.35;;;20.88;;
49842;SDS011;55559;48.898;9.184;2022-10-03T05:58:51;37.60;;;20.40;;
49842;SDS011;55559;48.898;9.184;2022-10-03T06:04:38;37.47;;;18.27;;
49842;SDS011;55559;48.898;9.184;2022-10-03T06:07:32;37.08;;;18.40;;
49842;SDS011;55559;48.898;9.184;2022-10-03T06:13:11;39.00;;;20.58;;
49842;SDS011;55559;48.898;9.184;2022-10-03T06:15:47;36.53;;;18.67;;
49842;SDS011;55559;48.898;9.184;2022-10-03T06:21:45;28.88;;;18.67;;
49842;SDS011;55559;48.898;9.184;2022-10-03T06:31:11;34.00;;;19.40;;
49842;SDS011;55559;48.898;9.184;2022-10-03T06:34:05;40.72;;;19.90;;
49842;SDS011;55559;48.898;9.184;2022-10-03T06:49:30;34.38;;;19.17;;
49842;SDS011;55559;48.898;9.184;2022-10-03T06:52:14;41.67;;;20.17;;
49842;SDS011;55559;48.898;9.184;2022-10-03T06:58:04;45.28;;;22.65;;
49842;SDS011;55559;48.898;9.184;2022-10-03T07:00:52;32.55;;;20.48;;
49842;SDS011;55559;48.898;9.184;2022-10-03T07:06:46;38.92;;;20.00;;
49842;SDS011;55559;48.898;9.184;2022-10-03T07:09:56;38.17;;;19.48;;
49842;SDS011;55559;48.898;9.184;2022-10-03T07:24:44;29.10;;;15.68;;
49842;SDS011;55559;48.898;9.184;2022-10-03T07:27:39;27.35;;;14.65;;
49842;SDS011;55559;48.898;9.184;2022-10-03T07:30:15;29.67;;;12.32;;
49842;SDS011;55559;48.898;9.184;2022-10-03T07:33:06;20.88;;;10.48;;
49842;SDS011;55559;48.898;9.184;2022-10-03T07:39:28;25.58;;;10.98;;
49842;SDS011;55559;48.898;9.184;2022-10-03T07:42:33;21.73;;;10.82;;
49842;SDS011;55559;48.898;9.184;2022-10-03T07:45:26;20.92;;;9.65;;
49842;SDS011;55559;48.898;9.184;2022-10-03T07:48:03;22.23;;;9.40;;
49842;SDS011;55559;48.898;9.184;2022-10-03T07:51:01;13.52;;;6.18;;
49842;SDS011;55559;48.898;9.184;2022-10-03T07:53:49;26.92;;;7.63;;
49842;SDS011;55559;48.898;9.184;2022-10-03T07:56:53;17.75;;;6.10;;
49842;SDS011;55559;48.898;9.184;2022-10-03T08:11:58;15.35;;;6.35;;
49842;SDS011;55559;48.898;9.184;2022-10-03T08:14:50;15.25;;;6.93;;
49842;SDS011;55559;48.898;9.184;2022-10-03T08:20:51;16.00;;;5.53;;
49842;SDS011;55559;48.898;9.184;2022-10-03T08:26:22;16.52;;;5.43;;
49842;SDS011;55559;48.898;9.184;2022-10-03T08:29:16;19.27;;;5.47;;
49842;SDS011;55559;48.898;9.184;2022-10-03T08:41:24;25.13;;;6.15;;
49842;SDS011;55559;48.898;9.184;2022-10-03T08:47:25;18.92;;;5.30;;
49842;SDS011;55559;48.898;9.184;2022-10-03T08:50:30;17.95;;;4.85;;
49842;SDS011;55559;48.898;9.184;2022-10-03T08:53:15;16.55;;;4.90;;
49842;SDS011;55559;48.898;9.184;2022-10-03T08:56:09;16.75;;;3.90;;
49842;SDS011;55559;48.898;9.184;2022-10-03T08:58:48;18.08;;;4.60;;
49842;SDS011;55559;48.898;9.184;2022-10-03T09:01:45;12.82;;;3.72;;
49842;SDS011;55559;48.898;9.184;2022-10-03T09:11:00;15.90;;;2.97;;
49842;SDS011;55559;48.898;9.184;2022-10-03T09:13:58;10.77;;;2.95;;
49842;SDS011;55559;48.898;9.184;2022-10-03T09:16:48;11.50;;;2.55;;
49842;SDS011;55559;48.898;9.184;2022-10-03T09:19:42;15.35;;;2.60;;
49842;SDS011;55559;48.898;9.184;2022-10-03T09:22:38;15.05;;;2.38;;
49842;SDS011;55559;48.898;9.184;2022-10-03T09:25:41;11.38;;;2.28;;
49842;SDS011;55559;48.898;9.184;2022-10-03T09:28:57;18.27;;;2.55;;
49842;SDS011;55559;48.898;9.184;2022-10-03T09:35:20;15.25;;;3.08;;
49842;SDS011;55559;48.898;9.184;2022-10-03T09:38:05;12.07;;;2.47;;
49842;SDS011;55559;48.898;9.184;2022-10-03T09:41:14;22.13;;;4.47;;
49842;SDS011;55559;48.898;9.184;2022-10-03T09:44:14;16.10;;;3.42;;
49842;SDS011;55559;48.898;9.184;2022-10-03T09:53:21;14.80;;;5.75;;
49842;SDS011;55559;48.898;9.184;2022-10-03T09:56:13;18.85;;;5.10;;
49842;SDS011;55559;48.898;9.184;2022-10-03T09:59:03;17.30;;;4.80;;
49842;SDS011;55559;48.898;9.184;2022-10-03T10:01:46;27.65;;;5.45;;
49842;SDS011;55559;48.898;9.184;2022-10-03T10:07:29;16.10;;;5.95;;
49842;SDS011;55559;48.898;9.184;2022-10-03T10:13:27;20.13;;;6.57;;
49842;SDS011;55559;48.898;9.184;2022-10-03T10:16:13;21.13;;;4.00;;
49842;SDS011;55559;48.898;9.184;2022-10-03T10:19:23;10.98;;;4.25;;
49842;SDS011;55559;48.898;9.184;2022-10-03T10:22:14;11.88;;;2.80;;
49842;SDS011;55559;48.898;9.184;2022-10-03T10:28:14;19.10;;;7.03;;
49842;SDS011;55559;48.898;9.184;2022-10-03T10:34:29;12.95;;;3.00;;
49842;SDS011;55559;48.898;9.184;2022-10-03T10:47:10;11.38;;;2.08;;
49842;SDS011;55559;48.898;9.184;2022-10-03T10:50:35;15.50;;;2.47;;
49842;SDS011;55559;48.898;9.184;2022-10-03T11:27:50;16.48;;;1.48;;
49842;SDS011;55559;48.898;9.184;2022-10-03T11:37:07;11.13;;;1.55;;
49842;SDS011;55559;48.898;9.184;2022-10-03T11:39:47;13.00;;;1.20;;
49842;SDS011;55559;48.898;9.184;2022-10-03T11:42:26;8.15;;;1.00;;
49842;SDS011;55559;48.898;9.184;2022-10-03T11:45:04;10.43;;;0.85;;
49842;SDS011;55559;48.898;9.184;2022-10-03T11:47:50;13.27;;;1.48;;
49842;SDS011;55559;48.898;9.184;2022-10-03T11:50:27;12.15;;;1.27;;
49842;SDS011;55559;48.898;9.184;2022-10-03T11:59:12;7.70;;;1.00;;
49842;SDS011;55559;48.898;9.184;2022-10-03T12:01:55;13.23;;;1.20;;
49842;SDS011;55559;48.898;9.184;2022-10-03T12:04:38;11.45;;;1.15;;
49842;SDS011;55559;48.898;9.184;2022-10-03T12:07:16;10.15;;;0.93;;
49842;SDS011;55559;48.898;9.184;2022-10-03T12:10:17;11.82;;;1.73;;
49842;SDS011;55559;48.898;9.184;2022-10-03T12:12:57;14.25;;;1.10;;
49842;SDS011;55559;48.898;9.184;2022-10-03T12:15:31;9.25;;;1.58;;
49842;SDS011;55559;48.898;9.184;2022-10-03T12:18:08;13.52;;;1.20;;
49842;SDS011;55559;48.898;9.184;2022-10-03T12:20:51;15.00;;;1.23;;
49842;SDS011;55559;48.898;9.184;2022-10-03T12:23:52;8.48;;;1.40;;
49842;SDS011;55559;48.898;9.184;2022-10-03T12:26:30;22.50;;;2.90;;
49842;SDS011;55559;48.898;9.184;2022-10-03T12:29:12;14.45;;;1.52;;
49842;SDS011;55559;48.898;9.184;2022-10-03T12:31:45;10.60;;;1.10;;
49842;SDS011;55559;48.898;9.184;2022-10-03T12:34:28;10.60;;;0.90;;
49842;SDS011;55559;48.898;9.184;2022-10-03T12:37:08;12.18;;;1.05;;
49842;SDS011;55559;48.898;9.184;2022-10-03T12:39:53;10.35;;;1.10;;
49842;SDS011;55559;48.898;9.184;2022-10-03T12:42:31;17.73;;;1.50;;
49842;SDS011;55559;48.898;9.184;2022-10-03T12:45:04;8.35;;;0.93;;
49842;SDS011;55559;48.898;9.184;2022-10-03T12:47:49;14.07;;;0.70;;
49842;SDS011;55559;48.898;9.184;2022-10-03T12:50:38;7.68;;;0.70;;
49842;SDS011;55559;48.898;9.184;2022-10-03T12:56:13;5.55;;;1.15;;
49842;SDS011;55559;48.898;9.184;2022-10-03T12:58:46;10.60;;;1.58;;
49842;SDS011;55559;48.898;9.184;2022-10-03T13:01:24;10.48;;;0.80;;
49842;SDS011;55559;48.898;9.184;2022-10-03T13:03:59;6.95;;;0.75;;
49842;SDS011;55559;48.898;9.184;2022-10-03T13:09:38;8.60;;;0.93;;
49842;SDS011;55559;48.898;9.184;2022-10-03T13:12:20;10.30;;;1.27;;
49842;SDS011;55559;48.898;9.184;2022-10-03T13:18:14;9.57;;;0.80;;
49842;SDS011;55559;48.898;9.184;2022-10-03T13:20:57;8.77;;;0.75;;
49842;SDS011;55559;48.898;9.184;2022-10-03T13:23:37;9.73;;;0.90;;
49842;SDS011;55559;48.898;9.184;2022-10-03T13:26:13;4.30;;;0.60;;
49842;SDS011;55559;48.898;9.184;2022-10-03T13:29:05;6.72;;;0.60;;
49842;SDS011;55559;48.898;9.184;2022-10-03T13:31:47;4.53;;;0.63;;
49842;SDS011;55559;48.898;9.184;2022-10-03T13:34:45;6.43;;;0.60;;
49842;SDS011;55559;48.898;9.184;2022-10-03T13:37:56;7.35;;;0.60;;
49842;SDS011;55559;48.898;9.184;2022-10-03T13:40:32;4.20;;;0.77;;
49842;SDS011;55559;48.898;9.184;2022-10-03T13:43:08;8.20;;;0.75;;
49842;SDS011;55559;48.898;9.184;2022-10-03T13:45:39;4.60;;;0.50;;
49842;SDS011;55559;48.898;9.184;2022-10-03T13:48:21;10.85;;;0.60;;
49842;SDS011;55559;48.898;9.184;2022-10-03T13:50:54;11.15;;;0.60;;
49842;SDS011;55559;48.898;9.184;2022-10-03T13:53:41;5.65;;;0.50;;
49842;SDS011;55559;48.898;9.184;2022-10-03T13:56:25;10.15;;;0.73;;
49842;SDS011;55559;48.898;9.184;2022-10-03T13:59:04;4.80;;;0.83;;
49842;SDS011;55559;48.898;9.184;2022-10-03T14:01:47;7.13;;;0.57;;
49842;SDS011;55559;48.898;9.184;2022-10-03T14:04:28;5.28;;;0.80;;
49842;SDS011;55559;48.898;9.184;2022-10-03T14:07:12;2.78;;;0.45;;
49842;SDS011;55559;48.898;9.184;2022-10-03T14:12:40;6.57;;;0.80;;
49842;SDS011;55559;48.898;9.184;2022-10-03T14:15:25;4.93;;;0.60;;
49842;SDS011;55559;48.898;9.184;2022-10-03T14:18:12;5.97;;;0.70;;
49842;SDS011;55559;48.898;9.184;2022-10-03T14:24:17;5.80;;;0.93;;
49842;SDS011;55559;48.898;9.184;2022-10-03T14:26:55;6.32;;;0.60;;
49842;SDS011;55559;48.898;9.184;2022-10-03T14:29:29;6.15;;;0.73;;
49842;SDS011;55559;48.898;9.184;2022-10-03T14:32:05;4.57;;;0.60;;
49842;SDS011;55559;48.898;9.184;2022-10-03T14:34:43;5.95;;;1.13;;
49842;SDS011;55559;48.898;9.184;2022-10-03T14:37:22;5.00;;;0.50;;
49842;SDS011;55559;48.898;9.184;2022-10-03T14:40:02;6.97;;;0.70;;
49842;SDS011;55559;48.898;9.184;2022-10-03T14:42:48;9.30;;;0.82;;
49842;SDS011;55559;48.898;9.184;2022-10-03T14:45:25;5.22;;;0.68;;
49842;SDS011;55559;48.898;9.184;2022-10-03T14:47:56;9.88;;;0.75;;
49842;SDS011;55559;48.898;9.184;2022-10-03T14:50:29;3.38;;;0.65;;
49842;SDS011;55559;48.898;9.184;2022-10-03T14:52:59;8.15;;;0.70;;
49842;SDS011;55559;48.898;9.184;2022-10-03T14:55:39;5.82;;;0.73;;
49842;SDS011;55559;48.898;9.184;2022-10-03T14:58:14;5.00;;;0.60;;
49842;SDS011;55559;48.898;9.184;2022-10-03T15:00:46;5.63;;;0.65;;
49842;SDS011;55559;48.898;9.184;2022-10-03T15:03:21;6.38;;;0.88;;
49842;SDS011;55559;48.898;9.184;2022-10-03T15:05:59;5.75;;;0.90;;
49842;SDS011;55559;48.898;9.184;2022-10-03T15:08:30;6.25;;;0.88;;
49842;SDS011;55559;48.898;9.184;2022-10-03T15:11:06;7.90;;;0.70;;
49842;SDS011;55559;48.898;9.184;2022-10-03T15:13:37;6.80;;;0.70;;
49842;SDS011;55559;48.898;9.184;2022-10-03T15:16:09;10.43;;;1.10;;
49842;SDS011;55559;48.898;9.184;2022-10-03T15:18:43;6.60;;;0.85;;
49842;SDS011;55559;48.898;9.184;2022-10-03T15:21:18;4.45;;;0.60;;
49842;SDS011;55559;48.898;9.184;2022-10-03T15:23:47;4.03;;;0.52;;
49842;SDS011;55559;48.898;9.184;2022-10-03T15:26:22;6.20;;;0.82;;
49842;SDS011;55559;48.898;9.184;2022-10-03T15:28:53;8.60;;;0.90;;
49842;SDS011;55559;48.898;9.184;2022-10-03T15:31:27;6.95;;;0.75;;
49842;SDS011;55559;48.898;9.184;2022-10-03T15:34:00;4.90;;;0.65;;
49842;SDS011;55559;48.898;9.184;2022-10-03T15:36:31;5.53;;;0.60;;
49842;SDS011;55559;48.898;9.184;2022-10-03T15:39:03;5.68;;;0.50;;
49842;SDS011;55559;48.898;9.184;2022-10-03T15:41:48;3.88;;;0.60;;
49842;SDS011;55559;48.898;9.184;2022-10-03T15:44:20;4.90;;;0.50;;
49842;SDS011;55559;48.898;9.184;2022-10-03T15:46:57;3.33;;;0.80;;
49842;SDS011;55559;48.898;9.184;2022-10-03T15:49:30;5.30;;;0.70;;
49842;SDS011;55559;48.898;9.184;2022-10-03T15:52:06;8.57;;;0.80;;
49842;SDS011;55559;48.898;9.184;2022-10-03T15:54:40;4.50;;;0.65;;
49842;SDS011;55559;48.898;9.184;2022-10-03T15:57:18;7.63;;;0.70;;
49842;SDS011;55559;48.898;9.184;2022-10-03T15:59:52;11.63;;;0.60;;
49842;SDS011;55559;48.898;9.184;2022-10-03T16:02:25;5.47;;;0.60;;
49842;SDS011;55559;48.898;9.184;2022-10-03T16:05:02;2.83;;;0.63;;
49842;SDS011;55559;48.898;9.184;2022-10-03T16:07:35;8.45;;;0.75;;
49842;SDS011;55559;48.898;9.184;2022-10-03T16:10:13;4.18;;;0.57;;
49842;SDS011;55559;48.898;9.184;2022-10-03T16:12:53;8.55;;;1.33;;
49842;SDS011;55559;48.898;9.184;2022-10-03T16:15:25;11.13;;;1.67;;
49842;SDS011;55559;48.898;9.184;2022-10-03T16:18:03;6.43;;;0.73;;
49842;SDS011;55559;48.898;9.184;2022-10-03T16:20:36;5.25;;;0.60;;
49842;SDS011;55559;48.898;9.184;2022-10-03T16:23:13;5.43;;;0.80;;
49842;SDS011;55559;48.898;9.184;2022-10-03T16:25:46;6.30;;;0.82;;
49842;SDS011;55559;48.898;9.184;2022-10-03T16:28:18;5.90;;;0.90;;
49842;SDS011;55559;48.898;9.184;2022-10-03T16:30:51;8.43;;;1.15;;
49842;SDS011;55559;48.898;9.184;2022-10-03T16:33:24;11.80;;;2.85;;
49842;SDS011;55559;48.898;9.184;2022-10-03T16:35:56;20.52;;;4.57;;
49842;SDS011;55559;48.898;9.184;2022-10-03T16:38:28;15.80;;;4.70;;
49842;SDS011;55559;48.898;9.184;2022-10-03T16:41:01;9.88;;;3.63;;
49842;SDS011;55559;48.898;9.184;2022-10-03T16:43:33;12.10;;;3.10;;
49842;SDS011;55559;48.898;9.184;2022-10-03T16:46:00;13.73;;;3.72;;
49842;SDS011;55559;48.898;9.184;2022-10-03T16:48:34;22.05;;;7.53;;
49842;SDS011;55559;48.898;9.184;2022-10-03T16:51:20;14.70;;;4.55;;
49842;SDS011;55559;48.898;9.184;2022-10-03T16:53:51;7.72;;;1.23;;
49842;SDS011;55559;48.898;9.184;2022-10-03T16:56:47;5.50;;;1.00;;
49842;SDS011;55559;48.898;9.184;2022-10-03T17:00:04;9.40;;;0.95;;
49842;SDS011;55559;48.898;9.184;2022-10-03T17:03:00;10.23;;;0.80;;
49842;SDS011;55559;48.898;9.184;2022-10-03T17:05:35;4.65;;;0.77;;
49842;SDS011;55559;48.898;9.184;2022-10-03T17:08:31;3.15;;;0.70;;
49842;SDS011;55559;48.898;9.184;2022-10-03T17:11:33;3.55;;;0.68;;
49842;SDS011;55559;48.898;9.184;2022-10-03T17:15:14;7.40;;;0.90;;
49842;SDS011;55559;48.898;9.184;2022-10-03T17:17:27;7.45;;;0.80;;
49842;SDS011;55559;48.898;9.184;2022-10-03T17:20:12;8.13;;;1.45;;
49842;SDS011;55559;48.898;9.184;2022-10-03T17:23:55;6.20;;;1.02;;
49842;SDS011;55559;48.898;9.184;2022-10-03T17:26:17;5.90;;;1.27;;
49842;SDS011;55559;48.898;9.184;2022-10-03T17:29:16;9.10;;;1.05;;
49842;SDS011;55559;48.898;9.184;2022-10-03T17:32:49;5.25;;;2.50;;
49842;SDS011;55559;48.898;9.184;2022-10-03T17:35:39;7.05;;;2.00;;
49842;SDS011;55559;48.898;9.184;2022-10-03T17:38:37;5.90;;;1.45;;
49842;SDS011;55559;48.898;9.184;2022-10-03T17:41:14;6.25;;;1.88;;
49842;SDS011;55559;48.898;9.184;2022-10-03T17:44:32;14.02;;;1.42;;
49842;SDS011;55559;48.898;9.184;2022-10-03T17:47:09;9.95;;;1.92;;
49842;SDS011;55559;48.898;9.184;2022-10-03T17:49:55;10.98;;;1.45;;
49842;SDS011;55559;48.898;9.184;2022-10-03T17:52:31;12.00;;;2.22;;
49842;SDS011;55559;48.898;9.184;2022-10-03T17:55:29;10.73;;;2.13;;
49842;SDS011;55559;48.898;9.184;2022-10-03T17:58:10;11.23;;;2.33;;
49842;SDS011;55559;48.898;9.184;2022-10-03T18:00:53;11.10;;;2.50;;
49842;SDS011;55559;48.898;9.184;2022-10-03T18:03:29;11.13;;;3.03;;
49842;SDS011;55559;48.898;9.184;2022-10-03T18:13:15;10.70;;;3.83;;
49842;SDS011;55559;48.898;9.184;2022-10-03T18:16:35;16.20;;;3.63;;
49842;SDS011;55559;48.898;9.184;2022-10-03T18:20:17;12.18;;;2.38;;
49842;SDS011;55559;48.898;9.184;2022-10-03T18:23:09;8.70;;;2.97;;
49842;SDS011;55559;48.898;9.184;2022-10-03T18:26:15;13.07;;;3.95;;
49842;SDS011;55559;48.898;9.184;2022-10-03T18:29:35;14.65;;;4.43;;
49842;SDS011;55559;48.898;9.184;2022-10-03T18:32:10;10.85;;;4.95;;
49842;SDS011;55559;48.898;9.184;2022-10-03T18:35:06;19.10;;;5.15;;
49842;SDS011;55559;48.898;9.184;2022-10-03T18:38:30;20.58;;;5.43;;
49842;SDS011;55559;48.898;9.184;2022-10-03T18:40:55;13.52;;;5.60;;
49842;SDS011;55559;48.898;9.184;2022-10-03T18:44:03;15.10;;;6.22;;
49842;SDS011;55559;48.898;9.184;2022-10-03T18:47:13;13.35;;;6.05;;
49842;SDS011;55559;48.898;9.184;2022-10-03T18:50:12;16.63;;;6.55;;
49842;SDS011;55559;48.898;9.184;2022-10-03T18:52:52;20.60;;;7.60;;
49842;SDS011;55559;48.898;9.184;2022-10-03T18:55:30;16.10;;;6.93;;
49842;SDS011;55559;48.898;9.184;2022-10-03T18:58:34;20.40;;;7.60;;
49842;SDS011;55559;48.898;9.184;2022-10-03T19:01:34;14.43;;;7.60;;
49842;SDS011;55559;48.898;9.184;2022-10-03T19:04:18;19.05;;;8.45;;
49842;SDS011;55559;48.898;9.184;2022-10-03T19:07:32;25.20;;;11.43;;
49842;SDS011;55559;48.898;9.184;2022-10-03T19:11:06;21.50;;;10.73;;
49842;SDS011;55559;48.898;9.184;2022-10-03T19:15:00;27.10;;;12.20;;
49842;SDS011;55559;48.898;9.184;2022-10-03T19:17:35;26.08;;;12.68;;
49842;SDS011;55559;48.898;9.184;2022-10-03T19:27:12;17.48;;;9.73;;
49842;SDS011;55559;48.898;9.184;2022-10-03T19:29:46;21.00;;;10.63;;
49842;SDS011;55559;48.898;9.184;2022-10-03T19:33:04;20.70;;;9.20;;
49842;SDS011;55559;48.898;9.184;2022-10-03T19:36:11;28.63;;;10.30;;
49842;SDS011;55559;48.898;9.184;2022-10-03T19:42:28;17.95;;;9.38;;
49842;SDS011;55559;48.898;9.184;2022-10-03T19:45:16;19.02;;;8.57;;
49842;SDS011;55559;48.898;9.184;2022-10-03T19:49:47;30.77;;;10.68;;
49842;SDS011;55559;48.898;9.184;2022-10-03T19:51:37;20.23;;;10.15;;
49842;SDS011;55559;48.898;9.184;2022-10-03T19:55:09;20.50;;;12.50;;
49842;SDS011;55559;48.898;9.184;2022-10-03T20:01:30;23.17;;;10.30;;
49842;SDS011;55559;48.898;9.184;2022-10-03T20:07:33;145.70;;;42.65;;
49842;SDS011;55559;48.898;9.184;2022-10-03T20:14:28;25.63;;;13.18;;
49842;SDS011;55559;48.898;9.184;2022-10-03T20:17:11;38.30;;;15.93;;
49842;SDS011;55559;48.898;9.184;2022-10-03T20:23:00;22.02;;;13.13;;
49842;SDS011;55559;48.898;9.184;2022-10-03T20:25:56;31.17;;;16.20;;
49842;SDS011;55559;48.898;9.184;2022-10-03T20:28:45;29.58;;;14.82;;
49842;SDS011;55559;48.898;9.184;2022-10-03T20:32:13;24.17;;;12.50;;
49842;SDS011;55559;48.898;9.184;2022-10-03T20:35:02;24.20;;;11.63;;
49842;SDS011;55559;48.898;9.184;2022-10-03T20:40:51;25.17;;;12.35;;
49842;SDS011;55559;48.898;9.184;2022-10-03T20:43:51;25.45;;;13.23;;
49842;SDS011;55559;48.898;9.184;2022-10-03T20:46:25;19.67;;;12.27;;
49842;SDS011;55559;48.898;9.184;2022-10-03T20:49:07;36.40;;;14.00;;
49842;SDS011;55559;48.898;9.184;2022-10-03T20:52:15;37.30;;;16.65;;
49842;SDS011;55559;48.898;9.184;2022-10-03T20:54:56;32.40;;;16.35;;
49842;SDS011;55559;48.898;9.184;2022-10-03T20:59:57;29.20;;;15.52;;
49842;SDS011;55559;48.898;9.184;2022-10-03T21:02:39;27.73;;;16.15;;
49842;SDS011;55559;48.898;9.184;2022-10-03T21:08:21;44.38;;;24.25;;